Time;durP1;ratioP1;P1;durP2;ratioP2;P2;SDS_P1;SDS_P2;PMS_P1;PMS_P2;Temp;Humidity;BMP_temperature;BMP_pressure;BME280_temperature;BME280_humidity;BME280_pressure;Samples;Min_cycle;Max_cycle;Signal;HPM_P1;HPM_P2
2024/04/19 00:00:07;;;;;;;13.13;7.80;;;;;;;1.40;100.00;96383.59;1102481;26;19997;-72
2024/04/19 00:00:37;;;;;;;12.85;8.02;;;;;;;1.41;100.00;96379.25;1103723;26;19997;-73
2024/04/19 00:01:08;;;;;;;12.70;7.90;;;;;;;1.35;100.00;96374.84;1117504;26;20337;-73
2024/04/19 00:01:38;;;;;;;12.43;7.65;;;;;;;1.36;100.00;96377.22;1102973;26;19997;-73
2024/04/19 00:02:09;;;;;;;11.95;7.75;;;;;;;1.36;100.00;96379.00;1096147;27;20057;-73
2024/04/19 00:02:39;;;;;;;13.15;7.85;;;;;;;1.34;100.00;96379.22;1095847;26;20376;-73
2024/04/19 00:03:09;;;;;;;13.95;8.55;;;;;;;1.36;100.00;96381.59;1103253;26;20341;-73
2024/04/19 00:03:40;;;;;;;13.70;8.40;;;;;;;1.38;100.00;96384.81;1110327;26;20059;-73
2024/04/19 00:04:10;;;;;;;12.75;7.43;;;;;;;1.40;100.00;96378.44;1102797;26;20013;-72
2024/04/19 00:04:41;;;;;;;11.98;7.43;;;;;;;1.39;100.00;96386.41;1103315;26;20008;-73
2024/04/19 00:05:12;;;;;;;12.77;7.50;;;;;;;1.39;100.00;96376.06;1103222;26;20040;-73
2024/04/19 00:05:43;;;;;;;12.10;7.22;;;;;;;1.38;100.00;96375.25;1110611;26;20006;-73
2024/04/19 00:06:13;;;;;;;12.88;8.20;;;;;;;1.41;100.00;96380.06;1117637;26;20278;-73
2024/04/19 00:06:44;;;;;;;11.88;7.85;;;;;;;1.41;100.00;96372.31;1110191;26;20003;-73
2024/04/19 00:07:14;;;;;;;12.35;7.57;;;;;;;1.39;100.00;96374.25;1103218;26;19992;-73
2024/04/19 00:07:45;;;;;;;12.55;8.25;;;;;;;1.39;100.00;96373.47;1096057;26;20412;-73
2024/04/19 00:08:15;;;;;;;11.82;7.65;;;;;;;1.40;100.00;96377.63;1095878;26;20001;-73
2024/04/19 00:08:45;;;;;;;13.55;8.40;;;;;;;1.39;100.00;96371.69;1089220;27;20065;-73
2024/04/19 00:09:16;;;;;;;14.20;7.75;;;;;;;1.41;100.00;96376.69;1096001;26;20001;-73
2024/04/19 00:09:46;;;;;;;13.30;7.50;;;;;;;1.36;100.00;96364.28;1095168;26;20001;-73
2024/04/19 00:10:17;;;;;;;11.38;7.57;;;;;;;1.40;100.00;96375.06;1096269;26;20080;-73
2024/04/19 00:10:48;;;;;;;13.93;8.35;;;;;;;1.37;100.00;96370.25;1095740;26;19994;-73
2024/04/19 00:11:18;;;;;;;12.93;8.32;;;;;;;1.41;100.00;96358.56;1088941;27;20426;-72
2024/04/19 00:11:49;;;;;;;13.60;8.45;;;;;;;1.41;100.00;96364.53;1095785;27;20248;-73
2024/04/19 00:12:19;;;;;;;13.43;7.70;;;;;;;1.47;100.00;96373.31;1089221;27;20459;-73
2024/04/19 00:12:50;;;;;;;12.40;8.20;;;;;;;1.43;100.00;96366.94;1095887;26;20080;-73
2024/04/19 00:13:25;;;;;;;12.60;8.23;;;;;;;1.41;100.00;96366.34;1103207;26;20013;-73
2024/04/19 00:13:55;;;;;;;11.68;7.57;;;;;;;1.41;100.00;96369.72;1103014;26;20005;-73
2024/04/19 00:14:25;;;;;;;10.90;7.53;;;;;;;1.38;100.00;96366.72;1096908;26;20331;-72
2024/04/19 00:14:56;;;;;;;13.50;7.93;;;;;;;1.38;100.00;96370.09;1097096;26;19994;-73
2024/04/19 00:15:26;;;;;;;12.32;7.78;;;;;;;1.39;100.00;96368.28;1095875;27;20013;-73
2024/04/19 00:15:57;;;;;;;12.48;7.68;;;;;;;1.34;100.00;96355.13;1089324;27;20082;-73
2024/04/19 00:16:28;;;;;;;14.15;8.25;;;;;;;1.38;100.00;96370.09;1089433;27;20061;-72
2024/04/19 00:16:58;;;;;;;13.23;8.77;;;;;;;1.37;100.00;96371.06;1089900;27;20536;-73
2024/04/19 00:17:28;;;;;;;13.70;8.57;;;;;;;1.40;100.00;96367.31;1096601;26;20330;-73
2024/04/19 00:17:59;;;;;;;12.73;8.55;;;;;;;1.37;100.00;96365.09;1096682;26;20365;-73
2024/04/19 00:18:29;;;;;;;12.93;8.18;;;;;;;1.40;100.00;96368.09;1111125;26;19992;-73
2024/04/19 00:19:00;;;;;;;11.75;8.23;;;;;;;1.41;100.00;96361.94;1118019;26;19996;-73
2024/04/19 00:19:31;;;;;;;13.32;8.68;;;;;;;1.41;100.00;96354.19;1111079;26;20066;-73
2024/04/19 00:20:01;;;;;;;12.25;8.45;;;;;;;1.47;100.00;96364.75;1096623;26;19998;-72
2024/04/19 00:20:32;;;;;;;13.07;8.48;;;;;;;1.47;100.00;96368.13;1097200;27;20013;-73
2024/04/19 00:21:02;;;;;;;13.95;8.45;;;;;;;1.51;100.00;96365.97;1097190;27;19997;-72
2024/04/19 00:21:33;;;;;;;12.15;8.18;;;;;;;1.46;100.00;96365.75;1082976;27;20455;-73
2024/04/19 00:22:03;;;;;;;14.00;8.82;;;;;;;1.47;100.00;96362.16;1096676;26;19998;-73
2024/04/19 00:22:34;;;;;;;13.02;8.07;;;;;;;1.46;100.00;96360.59;1096881;27;20001;-73
2024/04/19 00:23:04;;;;;;;13.70;8.68;;;;;;;1.41;100.00;96354.19;1103626;26;20008;-73
2024/04/19 00:23:35;;;;;;;12.60;8.68;;;;;;;1.46;100.00;96361.38;1096358;26;20013;-73
2024/04/19 00:24:06;;;;;;;15.63;8.98;;;;;;;1.42;100.00;96360.16;1097117;26;20001;-73
2024/04/19 00:24:36;;;;;;;15.57;8.60;;;;;;;1.40;100.00;96355.16;1103526;26;20215;-73
2024/04/19 00:25:07;;;;;;;12.60;8.00;;;;;;;1.40;100.00;96356.97;1103996;26;20001;-73
2024/04/19 00:25:37;;;;;;;15.20;8.95;;;;;;;1.38;100.00;96354.56;1096459;27;20009;-73
2024/04/19 00:26:08;;;;;;;13.10;8.57;;;;;;;1.38;100.00;96352.00;1096650;27;20001;-73
2024/04/19 00:26:39;;;;;;;13.68;8.20;;;;;;;1.38;100.00;96353.78;1102125;26;20001;-73
2024/04/19 00:27:09;;;;;;;14.00;8.15;;;;;;;1.42;100.00;96355.78;1096927;26;20034;-73
2024/04/19 00:27:40;;;;;;;13.43;8.23;;;;;;;1.45;100.00;96361.56;1103800;26;20227;-73
2024/04/19 00:28:10;;;;;;;12.68;8.30;;;;;;;1.46;100.00;96365.75;1103450;26;19993;-73
2024/04/19 00:28:41;;;;;;;13.25;8.23;;;;;;;1.45;100.00;96359.78;1089838;27;20009;-73
2024/04/19 00:29:11;;;;;;;12.23;8.40;;;;;;;1.45;100.00;96364.97;1096774;27;20366;-73
2024/04/19 00:29:44;;;;;;;14.07;8.85;;;;;;;1.44;100.00;96355.59;1096832;26;20053;-73
2024/04/19 00:30:14;;;;;;;13.60;8.00;;;;;;;1.49;100.00;96361.00;1090663;26;19999;-73
2024/04/19 00:30:44;;;;;;;13.75;8.43;;;;;;;1.49;100.00;96355.81;1096585;27;20679;-73
2024/04/19 00:31:15;;;;;;;15.45;8.90;;;;;;;1.47;100.00;96360.38;1096620;27;19997;-73
2024/04/19 00:31:45;;;;;;;14.20;8.75;;;;;;;1.49;100.00;96361.00;1089280;26;20018;-72
2024/04/19 00:32:16;;;;;;;15.48;9.50;;;;;;;1.50;100.00;96360.00;1103919;26;20001;-73
2024/04/19 00:32:46;;;;;;;14.45;9.05;;;;;;;1.52;100.00;96357.25;1110992;26;19992;-72
2024/04/19 00:33:17;;;;;;;14.73;8.73;;;;;;;1.49;100.00;96361.00;1099570;26;19993;-73
2024/04/19 00:33:47;;;;;;;13.73;8.85;;;;;;;1.50;100.00;96354.84;1101320;26;20069;-73
2024/04/19 00:34:17;;;;;;;13.07;8.60;;;;;;;1.44;100.00;96349.63;1089632;27;20002;-73
2024/04/19 00:34:48;;;;;;;13.23;8.80;;;;;;;1.51;100.00;96355.63;1082740;27;19995;-73
2024/04/19 00:35:21;;;;;;;14.40;8.98;;;;;;;1.50;100.00;96357.41;1089538;27;20002;-73
2024/04/19 00:35:51;;;;;;;13.70;9.13;;;;;;;1.51;100.00;96360.78;1097842;26;19998;-73
2024/04/19 00:36:22;;;;;;;16.20;9.30;;;;;;;1.53;100.00;96364.78;1105452;26;20239;-73
2024/04/19 00:36:52;;;;;;;13.88;9.07;;;;;;;1.52;100.00;96360.63;1118164;26;20905;-73
2024/04/19 00:37:23;;;;;;;12.45;8.43;;;;;;;1.53;100.00;96359.63;1117300;26;20546;-71
2024/04/19 00:37:53;;;;;;;14.02;9.25;;;;;;;1.50;100.00;96356.63;1109493;26;19996;-73
2024/04/19 00:38:24;;;;;;;14.85;8.93;;;;;;;1.50;100.00;96351.44;1110585;26;20077;-73
2024/04/19 00:38:54;;;;;;;15.32;8.88;;;;;;;1.52;100.00;96355.44;1111135;26;20035;-73
2024/04/19 00:39:25;;;;;;;14.68;9.77;;;;;;;1.53;100.00;96351.88;1111029;26;20000;-73
2024/04/19 00:39:55;;;;;;;13.10;8.70;;;;;;;1.52;100.00;96352.88;1109902;26;19996;-73
2024/04/19 00:40:26;;;;;;;14.75;9.32;;;;;;;1.55;100.00;96349.91;1103815;26;20007;-73
2024/04/19 00:40:56;;;;;;;16.30;8.65;;;;;;;1.49;100.00;96344.69;1096669;27;19997;-74
2024/04/19 00:41:27;;;;;;;15.63;9.77;;;;;;;1.53;100.00;96357.03;1096655;26;20005;-73
2024/04/19 00:41:57;;;;;;;14.27;9.32;;;;;;;1.56;100.00;96354.06;1103519;26;20001;-73
2024/04/19 00:42:27;;;;;;;18.50;9.45;;;;;;;1.52;100.00;96352.88;1111019;26;20000;-73
2024/04/19 00:42:58;;;;;;;14.25;9.35;;;;;;;1.51;100.00;96345.28;1103866;26;19997;-73
2024/04/19 00:43:29;;;;;;;14.80;10.05;;;;;;;1.52;100.00;96355.44;1103465;26;20510;-73
2024/04/19 00:43:59;;;;;;;15.00;9.25;;;;;;;1.51;100.00;96346.09;1089514;27;20073;-73
2024/04/19 00:44:30;;;;;;;17.27;9.55;;;;;;;1.44;100.00;96342.66;1094201;26;20010;-72
2024/04/19 00:45:01;;;;;;;15.65;10.18;;;;;;;1.52;100.00;96347.69;1103487;26;20344;-73
2024/04/19 00:45:32;;;;;;;15.05;9.73;;;;;;;1.53;100.00;96346.69;1089970;27;20281;-73
2024/04/19 00:46:05;;;;;;;15.32;9.55;;;;;;;1.54;100.00;96352.66;1089566;27;20367;-73
2024/04/19 00:46:35;;;;;;;13.52;8.80;;;;;;;1.53;100.00;96346.69;1090228;27;20245;-72
2024/04/19 00:47:06;;;;;;;17.40;9.60;;;;;;;1.54;100.00;96350.06;1097457;26;20248;-73
2024/04/19 00:47:36;;;;;;;16.15;9.68;;;;;;;1.55;100.00;96347.31;1103631;26;20001;-73
2024/04/19 00:48:15;;;;;;;15.27;9.95;;;;;;;1.53;100.00;96346.69;1096618;27;19997;-73
2024/04/19 00:48:46;;;;;;;14.43;9.43;;;;;;;1.53;100.00;96356.25;1096556;26;20465;-73
2024/04/19 00:49:16;;;;;;;14.45;9.15;;;;;;;1.49;100.00;96345.47;1094010;26;20780;-73
2024/04/19 00:49:47;;;;;;;15.10;9.57;;;;;;;1.55;100.00;96344.72;1088858;27;20242;-73
2024/04/19 00:50:17;;;;;;;14.73;9.38;;;;;;;1.51;100.00;96343.53;1089367;27;20486;-74
2024/04/19 00:50:49;;;;;;;16.15;9.38;;;;;;;1.52;100.00;96345.09;1082516;27;20444;-73
2024/04/19 00:51:20;;;;;;;14.73;8.98;;;;;;;1.49;100.00;96345.47;1089690;27;20349;-73
2024/04/19 00:51:50;;;;;;;16.48;9.48;;;;;;;1.53;100.00;96351.06;1096500;26;20232;-73
2024/04/19 00:52:21;;;;;;;14.02;9.65;;;;;;;1.53;100.00;96346.69;1103698;26;20485;-73
2024/04/19 00:52:51;;;;;;;17.23;9.93;;;;;;;1.53;100.00;96346.69;1096877;26;20450;-73
2024/04/19 00:53:26;;;;;;;14.40;8.90;;;;;;;1.53;100.00;96346.69;1103783;26;20407;-73
2024/04/19 00:53:56;;;;;;;16.95;9.82;;;;;;;1.48;100.00;96337.94;1103804;26;20457;-73
2024/04/19 00:54:27;;;;;;;13.43;9.10;;;;;;;1.49;100.00;96335.13;1103561;26;20223;-73
2024/04/19 00:54:57;;;;;;;14.63;8.88;;;;;;;1.52;100.00;96339.94;1096661;27;19997;-73
2024/04/19 00:55:28;;;;;;;15.73;9.65;;;;;;;1.46;100.00;96335.53;1082594;27;20440;-73
2024/04/19 00:55:59;;;;;;;12.75;8.77;;;;;;;1.54;100.00;96343.13;1089651;27;20835;-74
2024/04/19 00:56:30;;;;;;;14.75;9.50;;;;;;;1.49;100.00;96329.97;1089590;27;20007;-72
2024/04/19 00:57:01;;;;;;;16.00;10.02;;;;;;;1.52;100.00;96334.75;1096406;26;20807;-73
2024/04/19 00:57:31;;;;;;;15.27;8.70;;;;;;;1.50;100.00;96336.72;1098860;26;20320;-74
2024/04/19 00:58:02;;;;;;;15.27;9.32;;;;;;;1.48;100.00;96336.13;1097060;26;20478;-73
2024/04/19 00:58:32;;;;;;;13.75;9.55;;;;;;;1.52;100.00;96332.19;1096403;27;20346;-73
2024/04/19 00:59:03;;;;;;;14.70;9.48;;;;;;;1.53;100.00;96328.59;1103361;26;20307;-73
2024/04/19 00:59:33;;;;;;;13.60;9.13;;;;;;;1.53;100.00;96336.34;1096646;27;19993;-74
2024/04/19 01:00:04;;;;;;;14.13;9.25;;;;;;;1.47;100.00;96333.72;1095887;27;20499;-72
2024/04/19 01:00:35;;;;;;;16.80;10.27;;;;;;;1.49;100.00;96332.56;1089832;27;20002;-73
2024/04/19 01:01:05;;;;;;;17.67;9.82;;;;;;;1.47;100.00;96331.94;1089484;26;20433;-73
2024/04/19 01:01:36;;;;;;;16.50;9.95;;;;;;;1.49;100.00;96340.31;1089620;27;20441;-73
2024/04/19 01:02:06;;;;;;;16.58;9.85;;;;;;;1.50;100.00;96334.16;1096889;26;20370;-73
2024/04/19 01:02:37;;;;;;;16.02;10.68;;;;;;;1.51;100.00;96338.34;1082446;27;20347;-73
2024/04/19 01:03:07;;;;;;;15.35;9.98;;;;;;;1.51;100.00;96337.53;1082746;27;20014;-74
2024/04/19 01:03:38;;;;;;;15.70;10.10;;;;;;;1.48;100.00;96328.38;1096716;27;20112;-73
2024/04/19 01:04:08;;;;;;;14.88;9.50;;;;;;;1.45;100.00;96325.38;1089798;26;20398;-73
2024/04/19 01:04:38;;;;;;;16.05;9.63;;;;;;;1.50;100.00;96336.72;1089660;27;20010;-73
2024/04/19 01:05:09;;;;;;;16.45;9.88;;;;;;;1.49;100.00;96329.97;1089541;27;19994;-74
2024/04/19 01:05:39;;;;;;;15.98;9.77;;;;;;;1.50;100.00;96330.75;1082669;27;20010;-73
2024/04/19 01:06:10;;;;;;;15.82;9.93;;;;;;;1.48;100.00;96327.59;1087085;27;20003;-73
2024/04/19 01:06:40;;;;;;;18.90;10.32;;;;;;;1.42;100.00;96322.16;1082495;27;20087;-73
2024/04/19 01:07:11;;;;;;;17.40;10.52;;;;;;;1.42;100.00;96329.13;1096333;27;20008;-74
2024/04/19 01:07:41;;;;;;;16.65;10.68;;;;;;;1.47;100.00;96337.09;1103011;26;20443;-73
2024/04/19 01:08:11;;;;;;;14.32;9.70;;;;;;;1.46;100.00;96332.94;1103315;26;20009;-73
2024/04/19 01:08:45;;;;;;;15.05;10.10;;;;;;;1.49;100.00;96334.34;1095975;27;20001;-73
2024/04/19 01:09:16;;;;;;;16.35;10.38;;;;;;;1.46;100.00;96332.94;1096249;27;20008;-73
2024/04/19 01:09:47;;;;;;;18.63;10.38;;;;;;;1.47;100.00;96331.94;1088754;27;20233;-73
2024/04/19 01:10:18;;;;;;;16.77;10.15;;;;;;;1.46;100.00;96335.53;1090625;27;20352;-73
2024/04/19 01:10:48;;;;;;;17.15;9.95;;;;;;;1.47;100.00;96333.72;1084114;26;20275;-73
2024/04/19 01:11:18;;;;;;;15.70;9.50;;;;;;;1.46;100.00;96337.31;1096753;26;20080;-73
2024/04/19 01:11:49;;;;;;;14.50;9.85;;;;;;;1.44;100.00;96332.31;1096836;26;20008;-73
2024/04/19 01:12:19;;;;;;;15.05;10.18;;;;;;;1.40;100.00;96324.13;1096644;26;19997;-73
2024/04/19 01:12:50;;;;;;;15.23;9.80;;;;;;;1.45;100.00;96339.09;1103691;26;20439;-73
2024/04/19 01:13:20;;;;;;;19.00;11.57;;;;;;;1.45;100.00;96328.75;1103550;26;20352;-73
2024/04/19 01:13:51;;;;;;;15.57;10.05;;;;;;;1.45;100.00;96339.09;1110844;26;20085;-73
2024/04/19 01:14:21;;;;;;;16.05;10.30;;;;;;;1.45;100.00;96336.53;1103749;26;20729;-73
2024/04/19 01:14:52;;;;;;;18.45;10.43;;;;;;;1.46;100.00;96327.75;1096500;26;19997;-73
2024/04/19 01:15:22;;;;;;;15.30;9.93;;;;;;;1.45;100.00;96333.94;1089410;27;20128;-73
2024/04/19 01:15:53;;;;;;;14.57;9.75;;;;;;;1.44;100.00;96340.06;1082785;27;20061;-74
2024/04/19 01:16:24;;;;;;;19.70;9.52;;;;;;;1.44;100.00;96334.91;1082636;27;20014;-74
2024/04/19 01:16:54;;;;;;;19.35;9.45;;;;;;;1.44;100.00;96334.91;1089978;26;20398;-73
2024/04/19 01:17:24;;;;;;;18.67;10.43;;;;;;;1.45;100.00;96333.13;1103952;26;20243;-73
2024/04/19 01:17:55;;;;;;;15.88;10.57;;;;;;;1.46;100.00;96334.72;1103556;26;20001;-73
2024/04/19 01:18:25;;;;;;;18.48;11.52;;;;;;;1.47;100.00;96339.69;1103760;26;20008;-73
2024/04/19 01:18:56;;;;;;;15.90;10.38;;;;;;;1.45;100.00;96330.56;1089624;27;20072;-74
2024/04/19 01:19:26;;;;;;;16.60;10.65;;;;;;;1.45;100.00;96333.94;1082379;27;19998;-73
2024/04/19 01:19:57;;;;;;;16.35;10.35;;;;;;;1.44;100.00;96326.34;1075255;27;20010;-73
2024/04/19 01:20:27;;;;;;;15.18;10.18;;;;;;;1.44;100.00;96328.94;1082695;27;20042;-73
2024/04/19 01:20:57;;;;;;;18.10;10.60;;;;;;;1.41;100.00;96327.56;1082544;27;20007;-73
2024/04/19 01:21:28;;;;;;;17.50;10.73;;;;;;;1.46;100.00;96338.09;1096605;27;19998;-74
2024/04/19 01:21:58;;;;;;;16.38;10.25;;;;;;;1.42;100.00;96335.09;1096437;27;20009;-73
2024/04/19 01:22:29;;;;;;;15.40;9.85;;;;;;;1.37;100.00;96326.31;1089836;27;19999;-73
2024/04/19 01:22:59;;;;;;;18.48;10.80;;;;;;;1.42;100.00;96329.13;1087145;27;20163;-73
2024/04/19 01:23:30;;;;;;;16.60;10.82;;;;;;;1.43;100.00;96330.72;1096573;26;20477;-73
2024/04/19 01:24:08;;;;;;;15.60;9.95;;;;;;;1.41;100.00;96328.34;1103520;26;20503;-72
2024/04/19 01:24:39;;;;;;;16.48;10.20;;;;;;;1.43;100.00;96333.31;1100558;26;20008;-73
2024/04/19 01:25:11;;;;;;;15.90;10.23;;;;;;;1.41;100.00;96322.38;1103750;26;20254;-74
2024/04/19 01:25:42;;;;;;;19.63;10.60;;;;;;;1.48;100.00;96335.34;1089261;27;19998;-73
2024/04/19 01:26:12;;;;;;;16.40;10.30;;;;;;;1.48;100.00;96327.59;1096405;27;20220;-73
2024/04/19 01:26:43;;;;;;;15.75;10.00;;;;;;;1.46;100.00;96332.94;1089345;27;20642;-73
2024/04/19 01:27:13;;;;;;;15.80;10.35;;;;;;;1.47;100.00;96331.94;1089692;27;20014;-73
2024/04/19 01:27:43;;;;;;;20.02;11.23;;;;;;;1.47;100.00;96331.94;1096514;26;20009;-73
2024/04/19 01:28:14;;;;;;;18.75;10.68;;;;;;;1.47;100.00;96329.34;1103478;26;20020;-73
2024/04/19 01:28:45;;;;;;;17.48;10.50;;;;;;;1.48;100.00;96330.16;1110646;26;19997;-73
2024/04/19 01:29:15;;;;;;;17.95;11.00;;;;;;;1.49;100.00;96322.22;1103533;26;19993;-73
2024/04/19 01:29:46;;;;;;;18.00;10.43;;;;;;;1.53;100.00;96327.78;1088383;27;19999;-72
2024/04/19 01:30:16;;;;;;;17.63;10.70;;;;;;;1.50;100.00;96330.75;1089190;27;20496;-73
2024/04/19 01:30:47;;;;;;;21.38;11.18;;;;;;;1.49;100.00;96329.19;1096551;27;20013;-73
2024/04/19 01:31:17;;;;;;;17.80;10.27;;;;;;;1.49;100.00;96329.97;1098434;26;20002;-73
2024/04/19 01:31:47;;;;;;;17.00;11.02;;;;;;;1.45;100.00;96315.84;1102982;26;19997;-73
2024/04/19 01:32:18;;;;;;;15.75;9.90;;;;;;;1.50;100.00;96320.41;1089218;27;19995;-73
2024/04/19 01:32:48;;;;;;;18.23;11.57;;;;;;;1.50;100.00;96326.38;1101914;26;20016;-73
2024/04/19 01:33:19;;;;;;;17.48;11.18;;;;;;;1.51;100.00;96315.06;1103823;26;20064;-73
2024/04/19 01:33:49;;;;;;;18.38;11.32;;;;;;;1.50;100.00;96317.84;1102379;26;20000;-73
2024/04/19 01:34:20;;;;;;;18.13;11.43;;;;;;;1.56;100.00;96324.84;1102568;26;20506;-73
2024/04/19 01:34:50;;;;;;;17.27;10.88;;;;;;;1.52;100.00;96324.41;1100616;26;20093;-74
2024/04/19 01:35:21;;;;;;;17.65;10.75;;;;;;;1.54;100.00;96321.63;1118101;26;19992;-73
2024/04/19 01:35:51;;;;;;;18.08;10.82;;;;;;;1.56;100.00;96317.06;1110752;26;20042;-73
2024/04/19 01:36:22;;;;;;;17.42;10.90;;;;;;;1.56;100.00;96319.66;1103427;26;19993;-74
2024/04/19 01:36:52;;;;;;;20.52;11.88;;;;;;;1.55;100.00;96324.03;1110711;26;20087;-73
2024/04/19 01:37:23;;;;;;;18.52;10.68;;;;;;;1.49;100.00;96311.88;1109645;26;20498;-72
2024/04/19 01:37:53;;;;;;;18.63;10.68;;;;;;;1.55;100.00;96318.88;1108802;26;20387;-73
2024/04/19 01:38:23;;;;;;;19.52;10.90;;;;;;;1.55;100.00;96320.66;1113867;26;20005;-73
2024/04/19 01:38:56;;;;;;;17.25;11.02;;;;;;;1.55;100.00;96324.03;1110682;26;20011;-74
2024/04/19 01:39:26;;;;;;;17.67;10.50;;;;;;;1.54;100.00;96312.09;1110098;26;19996;-73
2024/04/19 01:39:56;;;;;;;21.55;11.63;;;;;;;1.57;100.00;96318.66;1089471;26;20234;-73
2024/04/19 01:40:27;;;;;;;18.60;11.32;;;;;;;1.58;100.00;96317.69;1096703;26;20477;-72
2024/04/19 01:40:57;;;;;;;16.55;10.93;;;;;;;1.57;100.00;96314.28;1096253;27;20425;-73
2024/04/19 01:41:28;;;;;;;17.92;11.90;;;;;;;1.58;100.00;96315.91;1096810;26;20002;-72
2024/04/19 01:41:58;;;;;;;18.48;11.73;;;;;;;1.53;100.00;96314.88;1096301;26;20105;-73
2024/04/19 01:42:29;;;;;;;17.30;10.45;;;;;;;1.56;100.00;96315.28;1096209;26;20002;-73
2024/04/19 01:42:59;;;;;;;19.38;11.93;;;;;;;1.57;100.00;96314.28;1103710;26;20001;-73
2024/04/19 01:43:30;;;;;;;20.23;11.45;;;;;;;1.57;100.00;96310.91;1103408;26;20499;-73
2024/04/19 01:44:00;;;;;;;16.90;10.95;;;;;;;1.56;100.00;96309.31;1095193;26;20008;-72
2024/04/19 01:44:30;;;;;;;18.88;11.57;;;;;;;1.55;100.00;96311.09;1089291;27;20010;-73
2024/04/19 01:45:01;;;;;;;18.83;11.45;;;;;;;1.54;100.00;96314.69;1082489;27;20014;-72
2024/04/19 01:45:31;;;;;;;19.30;12.00;;;;;;;1.49;100.00;96301.53;1082240;27;20076;-73
2024/04/19 01:46:02;;;;;;;19.45;11.93;;;;;;;1.55;100.00;96315.50;1089459;27;20009;-73
2024/04/19 01:46:32;;;;;;;19.45;11.85;;;;;;;1.52;100.00;96314.06;1096292;26;20135;-73
2024/04/19 01:47:03;;;;;;;18.23;11.57;;;;;;;1.52;100.00;96311.50;1090935;27;20077;-73
2024/04/19 01:47:33;;;;;;;19.67;11.60;;;;;;;1.52;100.00;96314.06;1089399;27;20053;-73
2024/04/19 01:48:04;;;;;;;20.60;12.38;;;;;;;1.52;100.00;96308.09;1096464;26;19993;-73
2024/04/19 01:48:34;;;;;;;19.00;12.05;;;;;;;1.49;100.00;96309.28;1103768;26;20515;-73
2024/04/19 01:49:05;;;;;;;21.98;11.80;;;;;;;1.50;100.00;96305.69;1100827;26;20005;-73
2024/04/19 01:49:35;;;;;;;17.63;11.20;;;;;;;1.53;100.00;96307.91;1096401;27;20002;-73
2024/04/19 01:50:07;;;;;;;20.80;12.60;;;;;;;1.50;100.00;96308.28;1096438;26;20001;-73
2024/04/19 01:50:37;;;;;;;18.17;11.55;;;;;;;1.50;100.00;96305.69;1103829;26;20008;-73
2024/04/19 01:51:07;;;;;;;20.80;12.23;;;;;;;1.49;100.00;96309.28;1103456;26;20243;-73
2024/04/19 01:51:38;;;;;;;20.02;12.27;;;;;;;1.48;100.00;96312.88;1103488;26;19993;-73
2024/04/19 01:52:08;;;;;;;19.30;11.60;;;;;;;1.41;100.00;96299.91;1103670;26;19997;-73
2024/04/19 01:52:39;;;;;;;17.92;11.77;;;;;;;1.47;100.00;96307.88;1096643;26;20024;-73
2024/04/19 01:53:09;;;;;;;18.35;11.63;;;;;;;1.47;100.00;96305.28;1096034;26;20053;-73
2024/04/19 01:53:40;;;;;;;20.38;11.60;;;;;;;1.49;100.00;96309.28;1082186;27;20007;-73
2024/04/19 01:54:10;;;;;;;18.58;11.00;;;;;;;1.51;100.00;96301.31;1082481;27;20522;-73
2024/04/19 01:54:40;;;;;;;21.02;11.95;;;;;;;1.52;100.00;96311.50;1089485;26;20564;-73
2024/04/19 01:55:11;;;;;;;20.13;11.70;;;;;;;1.50;100.00;96310.88;1103489;26;20348;-73
2024/04/19 01:55:41;;;;;;;17.42;11.75;;;;;;;1.47;100.00;96308.66;1118033;26;19996;-74
2024/04/19 01:56:12;;;;;;;24.10;12.93;;;;;;;1.49;100.00;96317.03;1110775;26;19997;-73
2024/04/19 01:56:42;;;;;;;18.85;11.63;;;;;;;1.47;100.00;96311.25;1110923;26;20000;-73
2024/04/19 01:57:13;;;;;;;19.02;11.65;;;;;;;1.51;100.00;96316.84;1082101;27;20014;-73
2024/04/19 01:57:43;;;;;;;20.00;12.35;;;;;;;1.53;100.00;96315.66;1082850;27;20454;-73
2024/04/19 01:58:14;;;;;;;20.13;12.25;;;;;;;1.51;100.00;96320.25;1089487;27;19998;-73
2024/04/19 01:58:44;;;;;;;17.55;12.07;;;;;;;1.51;100.00;96316.84;1089238;26;19998;-74
2024/04/19 01:59:15;;;;;;;19.92;11.23;;;;;;;1.53;100.00;96318.25;1103344;26;20012;-74
2024/04/19 01:59:45;;;;;;;20.95;12.52;;;;;;;1.52;100.00;96324.41;1103141;26;20474;-72
2024/04/19 02:00:16;;;;;;;20.42;11.82;;;;;;;1.53;100.00;96317.47;1117901;26;20552;-73
2024/04/19 02:00:46;;;;;;;21.67;12.80;;;;;;;1.52;100.00;96324.41;1125445;26;20002;-73
2024/04/19 02:01:17;;;;;;;18.88;12.25;;;;;;;1.52;100.00;96314.06;1110506;26;20008;-74
2024/04/19 02:01:47;;;;;;;19.25;11.82;;;;;;;1.47;100.00;96308.66;1103199;26;19993;-73
2024/04/19 02:02:18;;;;;;;18.33;11.82;;;;;;;1.51;100.00;96317.66;1089729;27;20695;-74
2024/04/19 02:02:48;;;;;;;19.85;11.52;;;;;;;1.54;100.00;96322.44;1096480;26;20687;-73
2024/04/19 02:03:19;;;;;;;20.58;12.38;;;;;;;1.53;100.00;96318.25;1103470;26;19997;-73
2024/04/19 02:03:49;;;;;;;19.83;11.85;;;;;;;1.54;100.00;96319.88;1096411;26;20005;-73
2024/04/19 02:04:20;;;;;;;22.35;12.15;;;;;;;1.55;100.00;96320.66;1096034;27;20013;-73
2024/04/19 02:04:50;;;;;;;18.23;12.02;;;;;;;1.55;100.00;96321.47;1096572;27;20002;-74
2024/04/19 02:05:21;;;;;;;18.98;12.50;;;;;;;1.54;100.00;96316.47;1096190;27;20034;-73
2024/04/19 02:05:51;;;;;;;19.75;12.07;;;;;;;1.49;100.00;96314.44;1103314;26;19997;-73
2024/04/19 02:06:21;;;;;;;17.95;11.30;;;;;;;1.52;100.00;96319.25;1103179;26;20055;-73
2024/04/19 02:06:52;;;;;;;18.52;11.45;;;;;;;1.51;100.00;96316.84;1117918;26;19992;-73
2024/04/19 02:07:22;;;;;;;18.58;11.27;;;;;;;1.49;100.00;96311.06;1110699;26;19992;-72
2024/04/19 02:07:53;;;;;;;21.75;12.45;;;;;;;1.46;100.00;96314.84;1103183;26;20001;-73
2024/04/19 02:08:23;;;;;;;18.45;11.50;;;;;;;1.47;100.00;96311.25;1096161;27;20009;-74
2024/04/19 02:08:54;;;;;;;21.75;12.20;;;;;;;1.42;100.00;96309.25;1096701;26;20008;-73
2024/04/19 02:09:24;;;;;;;22.08;12.45;;;;;;;1.44;100.00;96314.22;1096110;26;19998;-73
2024/04/19 02:09:54;;;;;;;21.65;12.65;;;;;;;1.43;100.00;96315.22;1095453;26;19997;-73
2024/04/19 02:10:25;;;;;;;17.38;11.90;;;;;;;1.41;100.00;96312.84;1096413;27;20005;-73
2024/04/19 02:10:59;;;;;;;20.95;12.57;;;;;;;1.39;100.00;96306.25;1089146;26;20009;-73
2024/04/19 02:11:30;;;;;;;19.70;12.52;;;;;;;1.42;100.00;96308.44;1096186;27;20009;-73
2024/04/19 02:12:01;;;;;;;20.15;12.27;;;;;;;1.34;100.00;96303.41;1095196;27;20236;-73
2024/04/19 02:12:31;;;;;;;20.23;13.20;;;;;;;1.41;100.00;96310.25;1090065;27;19994;-72
2024/04/19 02:13:01;;;;;;;19.23;12.45;;;;;;;1.34;100.00;96306.00;1089796;26;20468;-73
2024/04/19 02:13:32;;;;;;;21.90;12.07;;;;;;;1.37;100.00;96306.41;1103463;26;20448;-74
2024/04/19 02:14:02;;;;;;;21.02;12.60;;;;;;;1.37;100.00;96310.78;1089138;27;19999;-73
2024/04/19 02:14:33;;;;;;;18.65;12.00;;;;;;;1.37;100.00;96308.22;1096241;27;20497;-74
2024/04/19 02:15:04;;;;;;;23.67;13.40;;;;;;;1.36;100.00;96315.19;1096205;27;19998;-74
2024/04/19 02:15:35;;;;;;;20.60;12.38;;;;;;;1.35;100.00;96313.59;1096775;26;20224;-73
2024/04/19 02:16:06;;;;;;;19.77;13.13;;;;;;;1.36;100.00;96309.22;1096095;26;20072;-72
2024/04/19 02:16:36;;;;;;;21.38;12.50;;;;;;;1.33;100.00;96301.81;1096873;26;19998;-74
2024/04/19 02:17:07;;;;;;;20.38;12.07;;;;;;;1.33;100.00;96307.78;1096432;27;20771;-74
2024/04/19 02:17:37;;;;;;;23.92;13.15;;;;;;;1.37;100.00;96303.03;1096487;26;19990;-73
2024/04/19 02:18:08;;;;;;;21.00;12.52;;;;;;;1.33;100.00;96301.81;1103094;26;20008;-73
2024/04/19 02:18:38;;;;;;;21.35;12.48;;;;;;;1.36;100.00;96304.03;1096515;26;19993;-73
2024/04/19 02:19:08;;;;;;;22.05;12.27;;;;;;;1.37;100.00;96305.63;1096066;26;19997;-73
2024/04/19 02:19:39;;;;;;;22.77;13.10;;;;;;;1.37;100.00;96306.41;1092088;27;20104;-73
2024/04/19 02:20:10;;;;;;;23.80;13.52;;;;;;;1.40;100.00;96315.59;1095548;26;20076;-73
2024/04/19 02:20:40;;;;;;;20.65;12.55;;;;;;;1.38;100.00;96307.25;1096658;26;20445;-72
2024/04/19 02:21:11;;;;;;;21.98;13.23;;;;;;;1.37;100.00;96303.84;1103620;26;19989;-73
2024/04/19 02:21:41;;;;;;;22.35;12.68;;;;;;;1.37;100.00;96303.84;1110714;26;20062;-73